createdAt,value
2023-05-06T00:00:20.892Z,13.82
2023-05-06T00:02:48.310Z,13.77
2023-05-06T00:05:18.643Z,13.74
2023-05-06T00:07:48.936Z,13.68
2023-05-06T00:10:17.049Z,13.64
2023-05-06T00:12:44.104Z,13.61
2023-05-06T00:15:11.868Z,13.59
2023-05-06T00:17:39.302Z,13.54
2023-05-06T00:20:07.550Z,13.50
2023-05-06T00:22:34.645Z,13.45
2023-05-06T00:25:02.094Z,13.43
2023-05-06T00:27:29.092Z,13.41
2023-05-06T00:29:58.261Z,13.34
2023-05-06T00:32:25.361Z,13.27
2023-05-06T00:34:52.414Z,13.26
2023-05-06T00:37:19.493Z,13.19
2023-05-06T00:39:46.500Z,13.16
2023-05-06T00:42:13.625Z,13.14
2023-05-06T00:44:40.640Z,13.13
2023-05-06T00:47:08.447Z,13.09
2023-05-06T00:49:35.719Z,13.06
2023-05-06T00:52:03.779Z,13.04
2023-05-06T00:54:31.045Z,13.02
2023-05-06T00:56:58.197Z,12.99
2023-05-06T00:59:25.264Z,12.96
2023-05-06T01:01:54.033Z,12.94
2023-05-06T01:04:24.110Z,12.90
2023-05-06T01:07:00.055Z,12.89
2023-05-06T01:10:07.160Z,12.85
2023-05-06T01:13:16.843Z,12.81
2023-05-06T01:15:51.673Z,12.76
2023-05-06T01:18:23.067Z,12.74
2023-05-06T01:20:53.735Z,12.70
2023-05-06T01:23:20.901Z,12.65
2023-05-06T01:25:48.031Z,12.63
2023-05-06T01:28:15.102Z,12.60
2023-05-06T01:31:11.925Z,12.56
2023-05-06T01:33:59.325Z,12.53
2023-05-06T01:36:39.841Z,12.48
2023-05-06T01:39:25.110Z,12.47
2023-05-06T01:41:53.885Z,12.44
2023-05-06T01:44:23.802Z,12.39
2023-05-06T01:46:53.729Z,12.38
2023-05-06T01:49:27.530Z,12.36
2023-05-06T01:51:58.854Z,12.36
2023-05-06T01:54:27.220Z,12.31
2023-05-06T01:56:54.380Z,12.28
2023-05-06T01:59:21.413Z,12.26
2023-05-06T02:01:49.777Z,12.24
2023-05-06T02:04:17.195Z,12.21
2023-05-06T02:06:44.304Z,12.20
2023-05-06T02:09:11.282Z,12.16
2023-05-06T02:11:38.301Z,12.17
2023-05-06T02:14:05.250Z,12.13
2023-05-06T02:16:32.493Z,12.11
2023-05-06T02:18:59.594Z,12.11
2023-05-06T02:21:27.779Z,12.10
2023-05-06T02:23:54.854Z,12.08
2023-05-06T02:26:21.848Z,12.06
2023-05-06T02:28:48.835Z,12.05
2023-05-06T02:31:16.486Z,12.04
2023-05-06T02:33:45.933Z,12.02
2023-05-06T02:36:13.010Z,12.01
2023-05-06T02:38:40.047Z,11.96
2023-05-06T02:41:07.070Z,11.95
2023-05-06T02:43:34.124Z,11.91
2023-05-06T02:46:01.122Z,11.89
2023-05-06T02:48:28.308Z,11.91
2023-05-06T02:50:55.342Z,11.88
2023-05-06T02:53:22.300Z,11.85
2023-05-06T02:55:49.263Z,11.81
2023-05-06T02:58:16.201Z,11.76
2023-05-06T03:00:43.235Z,11.74
2023-05-06T03:03:10.248Z,11.74
2023-05-06T03:05:37.289Z,11.71
2023-05-06T03:08:04.604Z,11.70
2023-05-06T03:10:31.631Z,11.66
2023-05-06T03:12:58.647Z,11.63
2023-05-06T03:15:26.139Z,11.61
2023-05-06T03:17:53.283Z,11.58
2023-05-06T03:20:20.960Z,11.55
2023-05-06T03:22:48.093Z,11.51
2023-05-06T03:25:15.787Z,11.51
2023-05-06T03:27:42.767Z,11.48
2023-05-06T03:30:11.107Z,11.46
2023-05-06T03:32:38.642Z,11.43
2023-05-06T03:35:07.474Z,11.38
2023-05-06T03:37:34.470Z,11.40
2023-05-06T03:40:04.179Z,11.36
2023-05-06T03:42:32.077Z,11.33
2023-05-06T03:44:59.020Z,11.33
2023-05-06T03:47:27.261Z,11.31
2023-05-06T03:49:55.419Z,11.30
2023-05-06T03:52:23.887Z,11.28
2023-05-06T03:54:52.192Z,11.28
2023-05-06T03:57:20.411Z,11.28
2023-05-06T03:59:48.633Z,11.26
2023-05-06T04:02:18.247Z,11.26
2023-05-06T04:04:46.690Z,11.27
2023-05-06T04:07:15.166Z,11.27
2023-05-06T04:09:43.629Z,11.29
2023-05-06T04:12:13.656Z,11.33
2023-05-06T04:14:44.624Z,11.36
2023-05-06T04:17:14.138Z,11.35
2023-05-06T04:19:44.797Z,11.35
2023-05-06T04:22:23.611Z,11.35
2023-05-06T04:24:54.594Z,11.37
2023-05-06T04:27:21.522Z,11.40
2023-05-06T04:29:48.535Z,11.42
2023-05-06T04:32:18.092Z,11.47
2023-05-06T04:34:47.341Z,11.62
2023-05-06T04:37:14.550Z,11.67
2023-05-06T04:39:42.590Z,11.69
2023-05-06T04:42:09.576Z,11.68
2023-05-06T04:44:36.684Z,11.70
2023-05-06T04:47:03.836Z,11.73
2023-05-06T04:49:31.360Z,11.81
2023-05-06T04:51:58.403Z,11.91
2023-05-06T04:54:25.555Z,12.01
2023-05-06T04:56:52.596Z,12.07
2023-05-06T04:59:19.645Z,12.21
2023-05-06T05:01:46.739Z,12.38
2023-05-06T05:04:13.829Z,12.58
2023-05-06T05:06:40.997Z,12.77
2023-05-06T05:09:08.307Z,12.92
2023-05-06T05:11:38.468Z,13.15
2023-05-06T05:14:05.626Z,13.42
2023-05-06T05:16:32.819Z,13.51
2023-05-06T05:19:01.580Z,13.71
2023-05-06T05:21:30.585Z,13.91
2023-05-06T05:23:57.636Z,13.98
2023-05-06T05:26:24.735Z,14.03
2023-05-06T05:28:51.743Z,13.98
2023-05-06T05:31:18.800Z,13.98
2023-05-06T05:33:45.864Z,14.05
2023-05-06T05:36:15.288Z,14.16
2023-05-06T05:38:42.348Z,14.31
2023-05-06T05:41:09.382Z,14.42
2023-05-06T05:43:36.501Z,14.46
2023-05-06T05:46:04.135Z,14.52
2023-05-06T05:48:32.823Z,14.66
2023-05-06T05:51:02.122Z,14.77
2023-05-06T05:53:29.256Z,14.85
2023-05-06T05:55:56.313Z,14.98
2023-05-06T05:58:23.322Z,15.14
2023-05-06T06:00:50.339Z,15.26
2023-05-06T06:03:18.718Z,15.37
2023-05-06T06:05:46.297Z,15.43
2023-05-06T06:08:13.617Z,15.48
2023-05-06T06:10:41.958Z,15.58
2023-05-06T06:13:09.075Z,15.65
2023-05-06T06:15:36.257Z,15.65
2023-05-06T06:18:03.373Z,15.59
2023-05-06T06:20:30.566Z,15.49
2023-05-06T06:22:57.597Z,15.41
2023-05-06T06:25:24.697Z,15.39
2023-05-06T06:27:51.713Z,15.49
2023-05-06T06:30:18.741Z,15.60
2023-05-06T06:32:54.106Z,15.74
2023-05-06T06:35:21.188Z,15.88
2023-05-06T06:37:48.189Z,15.99
2023-05-06T06:40:15.927Z,16.12
2023-05-06T06:42:42.969Z,16.23
2023-05-06T06:45:10.876Z,16.36
2023-05-06T06:47:38.105Z,16.48
2023-05-06T06:50:05.931Z,16.61
2023-05-06T06:52:32.930Z,16.75
2023-05-06T06:55:00.395Z,16.86
2023-05-06T06:57:27.622Z,17.01
2023-05-06T06:59:55.670Z,17.15
2023-05-06T07:02:23.074Z,17.33
2023-05-06T07:04:50.176Z,17.40
2023-05-06T07:07:17.256Z,17.45
2023-05-06T07:09:44.565Z,17.59
2023-05-06T07:12:12.155Z,17.70
2023-05-06T07:14:39.296Z,17.81
2023-05-06T07:17:06.436Z,17.91
2023-05-06T07:19:33.520Z,18.00
2023-05-06T07:22:00.983Z,18.08
2023-05-06T07:24:28.008Z,18.16
2023-05-06T07:26:55.077Z,18.24
2023-05-06T07:29:22.093Z,18.29
2023-05-06T07:31:49.157Z,18.34
2023-05-06T07:34:16.165Z,18.34
2023-05-06T07:36:44.729Z,18.40
2023-05-06T07:39:13.440Z,18.51
2023-05-06T07:41:40.617Z,18.61
2023-05-06T07:44:07.620Z,18.73
2023-05-06T07:46:35.097Z,18.82
2023-05-06T07:49:02.216Z,18.93
2023-05-06T07:51:29.555Z,19.03
2023-05-06T07:53:56.535Z,19.11
2023-05-06T07:56:23.485Z,19.19
2023-05-06T07:58:50.877Z,19.20
2023-05-06T08:01:17.934Z,19.19
2023-05-06T08:03:45.193Z,19.25
2023-05-06T08:06:12.326Z,19.32
2023-05-06T08:08:39.503Z,19.42
2023-05-06T08:11:06.514Z,19.51
2023-05-06T08:13:33.616Z,19.59
2023-05-06T08:16:04.587Z,19.71
2023-05-06T08:18:31.644Z,19.74
2023-05-06T08:20:58.686Z,19.81
2023-05-06T08:23:25.761Z,19.83
2023-05-06T08:25:52.979Z,19.81
2023-05-06T08:28:20.237Z,19.89
2023-05-06T08:30:48.589Z,20.02
2023-05-06T08:33:15.744Z,20.09
2023-05-06T08:35:42.775Z,20.21
2023-05-06T08:38:09.760Z,20.35
2023-05-06T08:40:44.225Z,20.45
2023-05-06T08:43:14.924Z,20.51
2023-05-06T08:45:42.758Z,20.54
2023-05-06T08:48:09.926Z,20.56
2023-05-06T08:50:43.048Z,20.61
2023-05-06T08:53:13.507Z,20.69
2023-05-06T08:55:44.281Z,20.77
2023-05-06T08:58:16.944Z,20.89
2023-05-06T09:00:44.448Z,20.87
2023-05-06T09:03:11.620Z,20.79
2023-05-06T09:05:38.870Z,20.73
2023-05-06T09:08:06.019Z,20.72
2023-05-06T09:10:42.683Z,20.70
2023-05-06T09:13:14.108Z,20.66
2023-05-06T09:15:49.353Z,20.61
2023-05-06T09:18:16.949Z,20.64
2023-05-06T09:20:49.640Z,20.74
2023-05-06T09:23:18.330Z,20.83
2023-05-06T09:25:47.308Z,20.95
2023-05-06T09:28:15.295Z,21.12
2023-05-06T09:30:47.669Z,21.35
2023-05-06T09:33:14.985Z,21.55
2023-05-06T09:35:43.699Z,21.74
2023-05-06T09:38:11.150Z,21.96
2023-05-06T09:40:39.483Z,22.13
2023-05-06T09:43:06.783Z,22.27
2023-05-06T09:45:34.044Z,22.38
2023-05-06T09:48:01.324Z,22.46
2023-05-06T09:50:29.163Z,22.42
2023-05-06T09:52:56.617Z,22.23
2023-05-06T09:55:27.114Z,22.13
2023-05-06T09:57:56.058Z,22.30
2023-05-06T10:00:28.361Z,22.33
2023-05-06T10:02:56.035Z,22.39
2023-05-06T10:05:25.385Z,22.34
2023-05-06T10:07:55.072Z,22.31
2023-05-06T10:10:25.579Z,22.37
2023-05-06T10:12:53.784Z,22.45
2023-05-06T10:15:21.057Z,22.93
2023-05-06T10:17:50.430Z,23.43
2023-05-06T10:20:19.310Z,24.00
2023-05-06T10:23:25.554Z,24.59
2023-05-06T10:25:57.952Z,24.79
2023-05-06T10:28:27.471Z,24.71
2023-05-06T10:30:59.897Z,24.76
2023-05-06T10:33:28.589Z,24.93
2023-05-06T10:36:21.331Z,25.26
2023-05-06T10:39:00.137Z,25.29
2023-05-06T10:41:28.900Z,25.26
2023-05-06T10:43:57.535Z,25.27
2023-05-06T10:46:29.505Z,25.32
2023-05-06T10:49:06.339Z,25.59
2023-05-06T10:51:37.960Z,25.83
2023-05-06T10:54:19.965Z,25.98
2023-05-06T10:56:49.919Z,26.12
2023-05-06T10:59:24.427Z,26.29
2023-05-06T11:02:12.363Z,26.50
2023-05-06T11:04:40.267Z,26.63
2023-05-06T11:07:23.370Z,26.77
2023-05-06T11:10:08.349Z,26.77
2023-05-06T11:12:50.128Z,26.63
2023-05-06T11:15:40.441Z,26.63
2023-05-06T11:18:29.532Z,26.62
2023-05-06T11:21:02.743Z,26.69
2023-05-06T11:23:42.154Z,26.80
2023-05-06T11:26:14.185Z,26.81
2023-05-06T11:28:44.950Z,26.83
2023-05-06T11:31:13.754Z,26.83
2023-05-06T11:33:55.107Z,26.83
2023-05-06T11:36:22.126Z,27.06
2023-05-06T11:38:53.289Z,27.28
2023-05-06T11:41:23.493Z,27.22
2023-05-06T11:43:53.364Z,27.35
2023-05-06T11:46:23.145Z,27.37
2023-05-06T11:48:50.906Z,27.36
2023-05-06T11:51:25.111Z,27.35
2023-05-06T11:54:04.875Z,27.32
2023-05-06T11:56:41.795Z,27.30
2023-05-06T11:59:08.802Z,27.30
2023-05-06T12:01:35.784Z,27.30
2023-05-06T12:04:03.002Z,27.32
2023-05-06T12:06:35.881Z,27.31
2023-05-06T12:09:09.546Z,27.40
2023-05-06T12:11:37.464Z,27.61
2023-05-06T12:14:07.966Z,27.74
2023-05-06T12:16:37.100Z,27.83
2023-05-06T12:19:05.856Z,27.90
2023-05-06T12:21:37.253Z,28.00
2023-05-06T12:24:04.773Z,28.04
2023-05-06T12:26:47.661Z,27.97
2023-05-06T12:29:18.436Z,27.96
2023-05-06T12:31:50.043Z,27.98
2023-05-06T12:34:18.594Z,28.01
2023-05-06T12:36:47.349Z,28.00
2023-05-06T12:39:14.792Z,28.02
2023-05-06T12:41:46.551Z,28.09
2023-05-06T12:44:34.511Z,28.15
2023-05-06T12:47:09.964Z,28.18
2023-05-06T12:49:53.769Z,28.12
2023-05-06T12:52:23.426Z,28.03
2023-05-06T12:54:52.821Z,28.08
2023-05-06T12:57:20.503Z,28.19
2023-05-06T12:59:48.678Z,28.21
2023-05-06T13:02:16.202Z,28.26
2023-05-06T13:04:44.444Z,28.31
2023-05-06T13:07:12.586Z,28.32
2023-05-06T13:09:39.595Z,28.43
2023-05-06T13:12:07.352Z,28.49
2023-05-06T13:14:35.255Z,28.57
2023-05-06T13:17:06.690Z,28.68
2023-05-06T13:19:34.206Z,28.73
2023-05-06T13:22:02.096Z,28.82
2023-05-06T13:24:29.870Z,28.93
2023-05-06T13:26:57.458Z,28.97
2023-05-06T13:29:24.871Z,29.06
2023-05-06T13:31:52.434Z,29.16
2023-05-06T13:34:19.647Z,29.20
2023-05-06T13:36:49.256Z,29.24
2023-05-06T13:39:16.868Z,29.25
2023-05-06T13:41:47.700Z,29.21
2023-05-06T13:44:14.738Z,29.05
2023-05-06T13:46:43.605Z,28.93
2023-05-06T13:49:14.433Z,28.88
2023-05-06T13:51:41.436Z,28.81
2023-05-06T13:54:08.421Z,28.68
2023-05-06T13:56:35.463Z,28.58
2023-05-06T13:59:02.512Z,28.56
2023-05-06T14:01:29.560Z,28.53
2023-05-06T14:03:56.617Z,28.53
2023-05-06T14:06:23.605Z,28.55
2023-05-06T14:08:50.736Z,28.59
2023-05-06T14:11:17.762Z,28.64
2023-05-06T14:13:44.920Z,28.66
2023-05-06T14:16:12.073Z,28.60
2023-05-06T14:18:39.115Z,28.53
2023-05-06T14:21:06.208Z,28.52
2023-05-06T14:23:33.324Z,28.38
2023-05-06T14:26:00.776Z,28.22
2023-05-06T14:28:27.741Z,28.01
2023-05-06T14:30:55.294Z,27.87
2023-05-06T14:33:23.514Z,27.79
2023-05-06T14:35:52.768Z,27.75
2023-05-06T14:38:20.115Z,27.83
2023-05-06T14:40:47.238Z,27.87
2023-05-06T14:43:14.271Z,27.92
2023-05-06T14:45:41.511Z,27.95
2023-05-06T14:48:08.773Z,27.92
2023-05-06T14:50:35.841Z,27.81
2023-05-06T14:53:03.909Z,27.61
2023-05-06T14:55:31.267Z,27.33
2023-05-06T14:57:58.442Z,27.01
2023-05-06T15:00:25.655Z,26.61
2023-05-06T15:02:52.745Z,26.21
2023-05-06T15:05:20.098Z,25.89
2023-05-06T15:07:47.107Z,25.59
2023-05-06T15:10:14.244Z,25.33
2023-05-06T15:12:41.281Z,25.07
2023-05-06T15:15:09.312Z,24.74
2023-05-06T15:17:36.469Z,24.30
2023-05-06T15:20:04.524Z,23.76
2023-05-06T15:22:31.501Z,23.21
2023-05-06T15:24:58.531Z,22.74
2023-05-06T15:27:25.717Z,22.29
2023-05-06T15:29:52.737Z,21.96
2023-05-06T15:32:19.763Z,21.70
2023-05-06T15:34:46.877Z,21.50
2023-05-06T15:37:15.920Z,21.33
2023-05-06T15:39:43.255Z,21.25
2023-05-06T15:42:11.234Z,21.19
2023-05-06T15:44:38.441Z,21.16
2023-05-06T15:47:08.427Z,21.16
2023-05-06T15:49:51.605Z,21.22
2023-05-06T15:52:19.735Z,21.29
2023-05-06T15:54:49.726Z,21.33
2023-05-06T15:57:17.690Z,21.33
2023-05-06T15:59:44.776Z,21.36
2023-05-06T16:04:41.830Z,21.31
2023-05-06T16:07:09.012Z,21.24
2023-05-06T16:09:36.223Z,21.18
2023-05-06T16:12:04.094Z,21.17
2023-05-06T16:14:31.331Z,21.21
2023-05-06T16:16:58.571Z,21.28
2023-05-06T16:19:26.150Z,21.31
2023-05-06T16:21:53.462Z,21.29
2023-05-06T16:24:20.534Z,21.29
2023-05-06T16:26:47.509Z,21.28
2023-05-06T16:29:18.958Z,21.26
2023-05-06T16:31:46.830Z,21.17
2023-05-06T16:34:13.873Z,21.09
2023-05-06T16:36:41.499Z,21.09
2023-05-06T16:39:08.906Z,21.08
2023-05-06T16:41:35.987Z,21.05
2023-05-06T16:44:03.454Z,21.03
2023-05-06T16:46:30.630Z,21.04
2023-05-06T16:48:57.678Z,21.04
2023-05-06T16:51:24.939Z,21.13
2023-05-06T16:53:52.126Z,21.15
2023-05-06T16:56:19.210Z,21.15
2023-05-06T16:58:46.392Z,21.13
2023-05-06T17:01:13.526Z,21.08
2023-05-06T17:03:40.952Z,21.02
2023-05-06T17:06:08.310Z,20.97
2023-05-06T17:08:36.722Z,20.88
2023-05-06T17:11:07.410Z,20.82
2023-05-06T17:13:34.937Z,20.80
2023-05-06T17:16:02.167Z,20.79
2023-05-06T17:18:29.212Z,20.76
2023-05-06T17:20:57.388Z,20.74
2023-05-06T17:23:25.081Z,20.69
2023-05-06T17:25:52.479Z,20.63
2023-05-06T17:28:19.577Z,20.60
2023-05-06T17:30:46.898Z,20.55
2023-05-06T17:33:13.987Z,20.49
2023-05-06T17:35:41.132Z,20.41
2023-05-06T17:38:11.055Z,20.28
2023-05-06T17:40:38.167Z,20.20
2023-05-06T17:43:05.181Z,20.14
2023-05-06T17:45:32.113Z,20.06
2023-05-06T17:47:59.278Z,20.00
2023-05-06T17:50:26.333Z,19.93
2023-05-06T17:52:54.687Z,19.89
2023-05-06T17:55:22.398Z,19.83
2023-05-06T17:57:50.297Z,19.77
2023-05-06T18:00:18.518Z,19.72
2023-05-06T18:02:45.724Z,19.70
2023-05-06T18:05:13.765Z,19.64
2023-05-06T18:07:41.078Z,19.60
2023-05-06T18:10:08.966Z,19.52
2023-05-06T18:12:36.700Z,19.46
2023-05-06T18:15:04.780Z,19.40
2023-05-06T18:17:31.927Z,19.36
2023-05-06T18:19:59.098Z,19.34
2023-05-06T18:22:26.217Z,19.26
2023-05-06T18:24:55.246Z,19.21
2023-05-06T18:27:22.921Z,19.18
2023-05-06T18:29:49.970Z,19.19
2023-05-06T18:32:18.096Z,19.18
2023-05-06T18:34:45.395Z,19.16
2023-05-06T18:37:12.509Z,19.14
2023-05-06T18:39:43.086Z,19.11
2023-05-06T18:42:10.240Z,19.08
2023-05-06T18:44:37.725Z,19.02
2023-05-06T18:47:05.130Z,18.94
2023-05-06T18:49:32.230Z,18.93
2023-05-06T18:51:59.430Z,18.90
2023-05-06T18:54:26.449Z,18.88
2023-05-06T18:56:54.718Z,18.74
2023-05-06T18:59:21.965Z,18.69
2023-05-06T19:01:49.013Z,18.67
2023-05-06T19:04:16.451Z,18.61
2023-05-06T19:06:43.597Z,18.59
2023-05-06T19:09:11.332Z,18.62
2023-05-06T19:11:38.710Z,18.59
2023-05-06T19:14:05.780Z,18.55
2023-05-06T19:16:32.983Z,18.48
2023-05-06T19:19:02.600Z,18.46
2023-05-06T19:21:29.710Z,18.40
2023-05-06T19:23:59.795Z,18.36
2023-05-06T19:26:28.065Z,18.31
2023-05-06T19:28:55.241Z,18.28
2023-05-06T19:31:22.448Z,18.32
2023-05-06T19:33:49.578Z,18.35
2023-05-06T19:36:16.811Z,18.35
2023-05-06T19:38:43.892Z,18.35
2023-05-06T19:41:11.102Z,18.29
2023-05-06T19:43:44.823Z,18.25
2023-05-06T19:46:12.705Z,18.24
2023-05-06T19:48:39.814Z,18.21
2023-05-06T19:51:07.152Z,18.18
2023-05-06T19:53:35.777Z,18.12
2023-05-06T19:56:14.108Z,18.09
2023-05-06T19:58:41.228Z,18.06
2023-05-06T20:01:09.133Z,18.03
2023-05-06T20:03:36.513Z,17.99
2023-05-06T20:06:04.233Z,17.95
2023-05-06T20:08:31.329Z,17.91
2023-05-06T20:10:58.410Z,17.91
2023-05-06T20:13:25.918Z,17.92
2023-05-06T20:15:54.880Z,17.93
2023-05-06T20:18:22.090Z,17.90
2023-05-06T20:20:49.317Z,17.87
2023-05-06T20:23:16.378Z,17.87
2023-05-06T20:25:43.524Z,17.86
2023-05-06T20:28:10.679Z,17.85
2023-05-06T20:30:38.547Z,17.83
2023-05-06T20:33:06.044Z,17.88
2023-05-06T20:35:38.170Z,17.80
2023-05-06T20:38:06.561Z,17.76
2023-05-06T20:40:35.784Z,17.76
2023-05-06T20:43:03.985Z,17.75
2023-05-06T20:45:34.102Z,17.70
2023-05-06T20:48:01.332Z,17.66
2023-05-06T20:50:29.967Z,17.61
2023-05-06T20:52:57.165Z,17.58
2023-05-06T20:55:25.737Z,17.52
2023-05-06T20:57:52.950Z,17.48
2023-05-06T21:00:20.661Z,17.44
2023-05-06T21:02:47.868Z,17.38
2023-05-06T21:05:15.065Z,17.32
2023-05-06T21:07:42.313Z,17.27
2023-05-06T21:10:11.398Z,17.22
2023-05-06T21:12:39.113Z,17.13
2023-05-06T21:15:07.012Z,17.14
2023-05-06T21:17:34.190Z,17.13
2023-05-06T21:20:02.378Z,17.09
2023-05-06T21:22:30.646Z,17.07
2023-05-06T21:24:57.714Z,17.04
2023-05-06T21:27:24.829Z,17.04
2023-05-06T21:29:51.889Z,17.02
2023-05-06T21:32:19.070Z,16.99
2023-05-06T21:34:46.163Z,16.97
2023-05-06T21:37:13.112Z,16.95
2023-05-06T21:39:40.179Z,16.93
2023-05-06T21:42:07.146Z,16.93
2023-05-06T21:44:34.174Z,16.93
2023-05-06T21:47:01.201Z,16.89
2023-05-06T21:49:28.206Z,16.91
2023-05-06T21:51:55.325Z,16.89
2023-05-06T21:54:24.149Z,16.86
2023-05-06T21:56:51.174Z,16.84
2023-05-06T21:59:19.682Z,16.83
2023-05-06T22:01:46.932Z,16.81
2023-05-06T22:04:16.765Z,16.77
2023-05-06T22:06:44.121Z,16.73
2023-05-06T22:09:11.296Z,16.71
2023-05-06T22:11:38.894Z,16.70
2023-05-06T22:14:06.882Z,16.68
2023-05-06T22:16:35.579Z,16.66
2023-05-06T22:19:03.971Z,16.62
2023-05-06T22:21:32.675Z,16.60
2023-05-06T22:24:00.404Z,16.58
2023-05-06T22:26:32.840Z,16.53
2023-05-06T22:28:59.967Z,16.52
2023-05-06T22:31:27.108Z,16.49
2023-05-06T22:33:57.481Z,16.45
2023-05-06T22:36:27.929Z,16.42
2023-05-06T22:38:55.728Z,16.38
2023-05-06T22:41:22.726Z,16.32
2023-05-06T22:43:49.758Z,16.27
2023-05-06T22:46:17.046Z,16.22
2023-05-06T22:48:47.078Z,16.18
2023-05-06T22:51:17.522Z,16.15
2023-05-06T22:53:48.098Z,16.09
2023-05-06T22:56:15.235Z,16.07
2023-05-06T22:58:42.218Z,16.03
2023-05-06T23:01:09.350Z,15.99
2023-05-06T23:03:36.689Z,15.96
2023-05-06T23:06:05.996Z,15.94
2023-05-06T23:08:36.069Z,15.92
2023-05-06T23:11:03.124Z,15.91
2023-05-06T23:13:36.214Z,15.93
2023-05-06T23:16:03.837Z,15.98
2023-05-06T23:18:30.936Z,16.02
2023-05-06T23:20:57.972Z,16.02
2023-05-06T23:23:25.023Z,16.08
2023-05-06T23:25:53.305Z,16.10
2023-05-06T23:28:21.093Z,16.09
2023-05-06T23:30:48.158Z,16.12
2023-05-06T23:33:15.280Z,16.13
2023-05-06T23:35:42.258Z,16.14
2023-05-06T23:38:09.262Z,16.16
2023-05-06T23:40:36.216Z,16.19
2023-05-06T23:43:03.227Z,16.19
2023-05-06T23:45:30.472Z,16.24
2023-05-06T23:47:57.484Z,16.29
2023-05-06T23:50:24.517Z,16.30
2023-05-06T23:52:51.476Z,16.31
2023-05-06T23:55:19.915Z,16.32
2023-05-06T23:57:46.953Z,16.33
